Accueil
METAR-TAF:

METAR-TAF

Aéroports :

Aéroport international de Hohhot Baita

Hohhot, Chine

latitude: 40-49N, longitude: 111-41E, altitude: 1065 m

Observation

Le bulletin a été fait il y a 48 minutes, à 14:00 UTC
Vent 8 kt de nord-est
Température 4°C
Humidité 17%
Pression 1024 hPa
Visibilité 10 km ou plus
Quelques nuages à une hauteur de 4000 ft

METAR: ZBHH 091400Z 04004MPS 9999 FEW040 04/M19 Q1024 NOSIG

Heure: 22:48 (14:48 UTC)

Prévision

Le bulletin a été fait il y a 5 heures et 38 minutes, à 09:10 UTC
Prévision valable du 09 à 12 UTC au 10 à 12 UTC
Vent 8 kt de est/nord-est
Visibilité 10 km ou plus
Quelques nuages à une hauteur de 4000 ft

TAF: ZBHH 090910Z 0912/1012 06004MPS 9999 FEW040 TX13/1007Z TN00/0923Z

Observations et prévisions météorologiques de plus de 4000 aéroports (messages METAR et TAF).

Les stations disponibles sont représentées par des disques jaunes et rouges sur la carte.

Passer la souris dessus pour voir le nom de la station.

Cliquer dessus pour voir les observations et prévisions météorologiques.

Pour changer de carte: cliquez sur les boutons verts avec une croix noire pour zoomer, sur le bouton vert avec un tiret pour effectuer un zoom arrière, ou sur les flèches vertes pour les cartes adjacentes.


METAR-TAF: